This is the latest recevied weather packets stored in our database for station/object E24MSQ-13. If no packets are shown the sender has not sent any weather packets the latest 10 day(s).
| Time | Temp. | Humidity | Pressure | Rain* | Wind** | Luminosity | Snow |
|---|---|---|---|---|---|---|---|
| 1777949469 | 30.56° C | 67% | 1012 hPa | - | - | 0 W/m² | - |
| 1777948544 | 30° C | 72% | 1012 hPa | - | - | 0 W/m² | - |
| 1777947620 | 29.44° C | 72% | 1012 hPa | - | - | 0 W/m² | - |
| 1777946695 | 28.89° C | 75% | 1012 hPa | - | - | 0 W/m² | - |
| 1777945771 | 28.89° C | 76% | 1012 hPa | - | - | 0 W/m² | - |
| 1777944847 | 28.89° C | 76% | 1012 hPa | - | - | 0 W/m² | - |
| 1777943922 | 28.33° C | 80% | 1012 hPa | - | - | 0 W/m² | - |
| 1777942997 | 28.33° C | 79% | 1011 hPa | - | - | 0 W/m² | - |
| 1777942072 | 27.78° C | 79% | 1011 hPa | - | - | 0 W/m² | - |
| 1777941147 | 27.78° C | 81% | 1011 hPa | - | - | 0 W/m² | - |
| 1777940223 | 27.78° C | 82% | 1011 hPa | - | - | 0 W/m² | - |
| 1777939298 | 27.22° C | 81% | 1011 hPa | - | - | 0 W/m² | - |
| 1777938373 | 27.22° C | 83% | 1011 hPa | - | - | 0 W/m² | - |
| 1777937449 | 27.22° C | 82% | 1011 hPa | - | - | 0 W/m² | - |
| 1777936523 | 26.67° C | 85% | 1010 hPa | - | - | 0 W/m² | - |
| 1777935599 | 26.67° C | 85% | 1010 hPa | - | - | 0 W/m² | - |
| 1777934675 | 26.67° C | 82% | 1010 hPa | - | - | 0 W/m² | - |
| 1777933749 | 26.67° C | 82% | 1010 hPa | - | - | 0 W/m² | - |
| 1777932824 | 26.67° C | 83% | 1010 hPa | - | - | 0 W/m² | - |
| 1777931899 | 26.11° C | 83% | 1010 hPa | - | - | 0 W/m² | - |
| 1777930974 | 26.11° C | 84% | 1010 hPa | - | - | 0 W/m² | - |
| 1777930050 | 26.11° C | 84% | 1010 hPa | - | - | 0 W/m² | - |
| 1777929126 | 26.67° C | 82% | 1010 hPa | - | - | 0 W/m² | - |
| 1777928201 | 26.11° C | 84% | 1010 hPa | - | - | 0 W/m² | - |
| 1777927276 | 26.67° C | 82% | 1010 hPa | - | - | 0 W/m² | - |
* Rain since midnight (hover to see other rain measurements)
** Current wind speed in m/s (hover to see current wind gust speed)